TimeEDT,TemperatureF,Dew PointF,Humidity,Sea Level PressureIn,VisibilityMPH,Wind Direction,Wind SpeedMPH,Gust SpeedMPH,PrecipitationIn,Events,Conditions,WindDirDegrees,DateUTC
12:53 AM,35.1,30.0,82,29.69,10.0,Calm,Calm,-,N/A,,Partly Cloudy,0,2013-10-24 04:53:00
1:53 AM,33.1,28.9,85,29.70,10.0,Calm,Calm,-,N/A,,Clear,0,2013-10-24 05:53:00
2:53 AM,30.0,28.9,96,29.70,10.0,Calm,Calm,-,N/A,,Clear,0,2013-10-24 06:53:00
3:53 AM,28.0,26.1,92,29.70,10.0,Calm,Calm,-,N/A,,Clear,0,2013-10-24 07:53:00
4:53 AM,28.0,26.1,92,29.70,10.0,Calm,Calm,-,N/A,,Unknown,0,2013-10-24 08:53:00
5:53 AM,28.9,26.1,89,29.70,10.0,WSW,3.5,-,N/A,,Mostly Cloudy,240,2013-10-24 09:53:00
6:53 AM,28.0,25.0,88,29.71,10.0,Calm,Calm,-,N/A,,Mostly Cloudy,0,2013-10-24 10:53:00
7:53 AM,28.9,24.1,82,29.71,10.0,Calm,Calm,-,N/A,,Clear,0,2013-10-24 11:53:00
8:53 AM,37.9,32.0,79,29.72,10.0,SSE,3.5,-,N/A,,Overcast,160,2013-10-24 12:53:00
9:53 AM,42.1,30.0,62,29.72,10.0,SSW,4.6,-,N/A,,Mostly Cloudy,210,2013-10-24 13:53:00
10:53 AM,45.0,27.0,49,29.71,10.0,Variable,6.9,-,N/A,,Overcast,0,2013-10-24 14:53:00
11:53 AM,44.1,27.0,51,29.72,10.0,West,8.1,18.4,N/A,,Overcast,260,2013-10-24 15:53:00
12:53 PM,44.1,30.0,58,29.70,10.0,Variable,6.9,-,0.00,Rain,Light Rain,0,2013-10-24 16:53:00
1:53 PM,46.0,30.9,56,29.70,10.0,Variable,4.6,-,0.00,,Mostly Cloudy,0,2013-10-24 17:53:00
2:53 PM,44.1,28.0,53,29.71,10.0,Variable,6.9,18.4,N/A,,Clear,0,2013-10-24 18:53:00
3:53 PM,45.0,28.0,52,29.73,10.0,West,9.2,-,N/A,,Overcast,280,2013-10-24 19:53:00
4:53 PM,44.1,28.9,55,29.75,10.0,West,12.7,20.7,N/A,,Overcast,280,2013-10-24 20:53:00
5:53 PM,42.1,30.0,62,29.78,10.0,Calm,Calm,-,N/A,,Overcast,0,2013-10-24 21:53:00
6:53 PM,42.1,30.0,62,29.81,10.0,Calm,Calm,-,N/A,,Overcast,0,2013-10-24 22:53:00
7:53 PM,41.0,30.0,65,29.82,10.0,Calm,Calm,-,N/A,,Overcast,0,2013-10-24 23:53:00
8:53 PM,41.0,30.9,67,29.84,10.0,Calm,Calm,-,N/A,,Overcast,0,2013-10-25 00:53:00
9:53 PM,39.9,30.9,70,29.86,10.0,WNW,5.8,-,N/A,,Overcast,300,2013-10-25 01:53:00
10:53 PM,37.9,30.9,76,29.86,10.0,Calm,Calm,-,N/A,,Clear,0,2013-10-25 02:53:00
11:53 PM,36.0,30.0,79,29.88,10.0,SW,3.5,-,N/A,,Partly Cloudy,230,2013-10-25 03:53:00